Terminal Aerodrome Forecast
Issued by NWS Bismarck, ND

Home | Current Version | Previous Version | Graphics & Text | Print | Product List | Glossary On
Versions: 1 2 3 4 5 6 7 8 9 10 11 12 13 14 15 16 17 18 19
215
FTUS43 KBIS 261734
TAFBIS
TAF
KBIS 261734Z 2618/2718 27004KT P6SM SCT080
     FM262200 VRB03KT P6SM SCT080 SCT100
     FM271000 00000KT P6SM SCT100=

USA.gov is the U.S. government's official web portal to all federal, state and local government web resources and services.